sensor_id;sensor_type;location;lat;lon;timestamp;pressure;altitude;pressure_sealevel;temperature;humidity
21182;BME280;10749;46.296;7.524;2022-10-15T00:00:34;94939.03;;;16.81;66.27
21182;BME280;10749;46.296;7.524;2022-10-15T00:03:00;94936.56;;;16.79;66.29
21182;BME280;10749;46.296;7.524;2022-10-15T00:05:25;94937.41;;;16.80;66.51
21182;BME280;10749;46.296;7.524;2022-10-15T00:07:51;94942.13;;;16.78;65.96
21182;BME280;10749;46.296;7.524;2022-10-15T00:10:16;94938.63;;;16.77;66.32
21182;BME280;10749;46.296;7.524;2022-10-15T00:12:42;94941.09;;;16.79;66.21
21182;BME280;10749;46.296;7.524;2022-10-15T00:15:08;94942.75;;;16.80;66.64
21182;BME280;10749;46.296;7.524;2022-10-15T00:17:34;94940.66;;;16.82;66.59
21182;BME280;10749;46.296;7.524;2022-10-15T00:20:00;94941.88;;;16.86;66.47
21182;BME280;10749;46.296;7.524;2022-10-15T00:22:25;94934.47;;;16.88;66.14
21182;BME280;10749;46.296;7.524;2022-10-15T00:24:51;94936.13;;;16.89;66.38
21182;BME280;10749;46.296;7.524;2022-10-15T00:27:16;94943.06;;;16.90;65.99
21182;BME280;10749;46.296;7.524;2022-10-15T00:29:41;94948.41;;;16.90;66.18
21182;BME280;10749;46.296;7.524;2022-10-15T00:32:07;94943.91;;;16.90;66.04
21182;BME280;10749;46.296;7.524;2022-10-15T00:34:32;94945.16;;;16.88;66.05
21182;BME280;10749;46.296;7.524;2022-10-15T00:36:58;94940.25;;;16.85;66.09
21182;BME280;10749;46.296;7.524;2022-10-15T00:39:23;94943.94;;;16.84;66.07
21182;BME280;10749;46.296;7.524;2022-10-15T00:41:48;94939.44;;;16.84;66.15
21182;BME280;10749;46.296;7.524;2022-10-15T00:46:47;94936.97;;;16.83;66.14
21182;BME280;10749;46.296;7.524;2022-10-15T00:49:24;94948.09;;;16.80;66.25
21182;BME280;10749;46.296;7.524;2022-10-15T00:52:06;94939.31;;;16.73;66.25
21182;BME280;10749;46.296;7.524;2022-10-15T00:54:36;94936.22;;;16.69;66.42
21182;BME280;10749;46.296;7.524;2022-10-15T00:57:05;94934.53;;;16.75;66.59
21182;BME280;10749;46.296;7.524;2022-10-15T00:59:33;94925.50;;;16.76;66.78
21182;BME280;10749;46.296;7.524;2022-10-15T01:02:01;94927.72;;;16.79;66.62
21182;BME280;10749;46.296;7.524;2022-10-15T01:04:26;94917.66;;;16.81;66.53
21182;BME280;10749;46.296;7.524;2022-10-15T01:06:53;94912.31;;;16.81;66.27
21182;BME280;10749;46.296;7.524;2022-10-15T01:09:18;94905.75;;;16.77;66.37
21182;BME280;10749;46.296;7.524;2022-10-15T01:11:51;94915.84;;;16.75;66.38
21182;BME280;10749;46.296;7.524;2022-10-15T01:27:57;94904.19;;;16.63;66.57
21182;BME280;10749;46.296;7.524;2022-10-15T01:30:39;94897.22;;;16.61;66.88
21182;BME280;10749;46.296;7.524;2022-10-15T01:33:23;94897.59;;;16.65;66.69
21182;BME280;10749;46.296;7.524;2022-10-15T01:38:59;94888.16;;;16.63;66.78
21182;BME280;10749;46.296;7.524;2022-10-15T01:41:54;94879.97;;;16.57;66.74
21182;BME280;10749;46.296;7.524;2022-10-15T01:44:26;94885.09;;;16.52;66.95
21182;BME280;10749;46.296;7.524;2022-10-15T01:47:05;94881.91;;;16.44;67.17
21182;BME280;10749;46.296;7.524;2022-10-15T01:49:37;94875.94;;;16.42;66.97
21182;BME280;10749;46.296;7.524;2022-10-15T01:52:08;94877.34;;;16.44;66.74
21182;BME280;10749;46.296;7.524;2022-10-15T01:54:44;94866.06;;;16.42;66.82
21182;BME280;10749;46.296;7.524;2022-10-15T01:57:11;94862.78;;;16.40;66.77
21182;BME280;10749;46.296;7.524;2022-10-15T01:59:38;94857.88;;;16.37;66.73
21182;BME280;10749;46.296;7.524;2022-10-15T02:02:05;94860.63;;;16.24;66.78
21182;BME280;10749;46.296;7.524;2022-10-15T02:04:31;94851.84;;;16.17;66.73
21182;BME280;10749;46.296;7.524;2022-10-15T02:07:33;94857.59;;;16.14;66.80
21182;BME280;10749;46.296;7.524;2022-10-15T02:15:47;94853.50;;;16.11;66.95
21182;BME280;10749;46.296;7.524;2022-10-15T02:18:28;94851.66;;;16.12;66.98
21182;BME280;10749;46.296;7.524;2022-10-15T02:21:05;94841.59;;;16.07;67.22
21182;BME280;10749;46.296;7.524;2022-10-15T02:23:40;94832.19;;;16.05;66.96
21182;BME280;10749;46.296;7.524;2022-10-15T02:26:08;94840.81;;;16.00;67.03
21182;BME280;10749;46.296;7.524;2022-10-15T02:28:37;94838.38;;;15.99;66.83
21182;BME280;10749;46.296;7.524;2022-10-15T02:31:07;94841.84;;;15.99;66.93
21182;BME280;10749;46.296;7.524;2022-10-15T02:33:33;94844.13;;;15.96;67.06
21182;BME280;10749;46.296;7.524;2022-10-15T02:35:59;94836.38;;;15.88;67.22
21182;BME280;10749;46.296;7.524;2022-10-15T02:38:26;94838.00;;;15.89;66.88
21182;BME280;10749;46.296;7.524;2022-10-15T02:40:55;94831.66;;;15.90;66.72
21182;BME280;10749;46.296;7.524;2022-10-15T02:43:21;94831.66;;;15.90;66.93
21182;BME280;10749;46.296;7.524;2022-10-15T02:45:47;94831.84;;;15.88;66.74
21182;BME280;10749;46.296;7.524;2022-10-15T02:48:13;94819.16;;;15.84;67.05
21182;BME280;10749;46.296;7.524;2022-10-15T02:50:38;94820.16;;;15.83;66.70
21182;BME280;10749;46.296;7.524;2022-10-15T02:53:03;94822.84;;;15.83;66.99
21182;BME280;10749;46.296;7.524;2022-10-15T02:55:29;94831.47;;;15.85;66.65
21182;BME280;10749;46.296;7.524;2022-10-15T02:57:54;94835.16;;;15.84;66.59
21182;BME280;10749;46.296;7.524;2022-10-15T03:00:20;94822.44;;;15.79;66.75
21182;BME280;10749;46.296;7.524;2022-10-15T03:02:45;94819.81;;;15.73;66.59
21182;BME280;10749;46.296;7.524;2022-10-15T03:05:11;94824.53;;;15.70;66.71
21182;BME280;10749;46.296;7.524;2022-10-15T03:07:36;94821.66;;;15.65;66.99
21182;BME280;10749;46.296;7.524;2022-10-15T03:10:02;94819.25;;;15.57;66.58
21182;BME280;10749;46.296;7.524;2022-10-15T03:12:28;94805.91;;;15.57;66.72
21182;BME280;10749;46.296;7.524;2022-10-15T03:14:53;94812.28;;;15.56;66.73
21182;BME280;10749;46.296;7.524;2022-10-15T03:17:19;94807.34;;;15.53;66.74
21182;BME280;10749;46.296;7.524;2022-10-15T03:19:44;94806.53;;;15.46;66.80
21182;BME280;10749;46.296;7.524;2022-10-15T03:22:10;94799.97;;;15.42;66.73
21182;BME280;10749;46.296;7.524;2022-10-15T03:24:35;94797.75;;;15.39;67.13
21182;BME280;10749;46.296;7.524;2022-10-15T03:27:00;94800.81;;;15.43;67.07
21182;BME280;10749;46.296;7.524;2022-10-15T03:29:26;94797.13;;;15.44;66.96
21182;BME280;10749;46.296;7.524;2022-10-15T03:31:51;94795.66;;;15.41;67.08
21182;BME280;10749;46.296;7.524;2022-10-15T03:34:17;94786.88;;;15.34;66.83
21182;BME280;10749;46.296;7.524;2022-10-15T03:36:42;94791.41;;;15.34;66.94
21182;BME280;10749;46.296;7.524;2022-10-15T03:39:08;94792.66;;;15.31;67.04
21182;BME280;10749;46.296;7.524;2022-10-15T03:41:33;94798.78;;;15.25;66.78
21182;BME280;10749;46.296;7.524;2022-10-15T03:44:03;94801.88;;;15.22;67.04
21182;BME280;10749;46.296;7.524;2022-10-15T03:46:29;94800.88;;;15.23;66.90
21182;BME280;10749;46.296;7.524;2022-10-15T03:48:54;94799.03;;;15.17;67.57
21182;BME280;10749;46.296;7.524;2022-10-15T03:51:20;94794.72;;;15.16;67.13
21182;BME280;10749;46.296;7.524;2022-10-15T03:53:45;94802.13;;;15.14;67.03
21182;BME280;10749;46.296;7.524;2022-10-15T03:56:10;94799.66;;;15.06;66.93
21182;BME280;10749;46.296;7.524;2022-10-15T03:58:36;94794.75;;;15.03;67.10
21182;BME280;10749;46.296;7.524;2022-10-15T04:01:07;94797.81;;;15.00;67.40
21182;BME280;10749;46.296;7.524;2022-10-15T04:03:33;94793.31;;;15.00;67.17
21182;BME280;10749;46.296;7.524;2022-10-15T04:05:58;94787.16;;;15.00;67.10
21182;BME280;10749;46.296;7.524;2022-10-15T04:08:23;94791.91;;;14.98;67.10
21182;BME280;10749;46.296;7.524;2022-10-15T04:10:49;94788.44;;;14.91;66.95
21182;BME280;10749;46.296;7.524;2022-10-15T04:13:15;94804.59;;;14.83;66.90
21182;BME280;10749;46.296;7.524;2022-10-15T04:15:40;94806.88;;;14.86;67.14
21182;BME280;10749;46.296;7.524;2022-10-15T04:18:05;94809.53;;;14.86;67.15
21182;BME280;10749;46.296;7.524;2022-10-15T04:20:31;94818.97;;;14.82;66.94
21182;BME280;10749;46.296;7.524;2022-10-15T04:22:56;94815.91;;;14.78;67.03
21182;BME280;10749;46.296;7.524;2022-10-15T04:25:21;94811.56;;;14.84;67.21
21182;BME280;10749;46.296;7.524;2022-10-15T04:27:47;94822.22;;;14.84;67.16
21182;BME280;10749;46.296;7.524;2022-10-15T04:30:12;94824.09;;;14.76;66.83
21182;BME280;10749;46.296;7.524;2022-10-15T04:32:38;94825.94;;;14.69;66.91
21182;BME280;10749;46.296;7.524;2022-10-15T04:35:04;94825.72;;;14.64;66.91
21182;BME280;10749;46.296;7.524;2022-10-15T04:37:32;94825.50;;;14.66;66.69
21182;BME280;10749;46.296;7.524;2022-10-15T04:39:57;94822.66;;;14.74;67.14
21182;BME280;10749;46.296;7.524;2022-10-15T04:42:23;94825.75;;;14.77;67.03
21182;BME280;10749;46.296;7.524;2022-10-15T04:44:48;94826.97;;;14.82;67.00
21182;BME280;10749;46.296;7.524;2022-10-15T04:47:13;94821.00;;;14.79;67.13
21182;BME280;10749;46.296;7.524;2022-10-15T04:49:39;94818.56;;;14.78;67.11
21182;BME280;10749;46.296;7.524;2022-10-15T04:52:04;94819.34;;;14.78;67.09
21182;BME280;10749;46.296;7.524;2022-10-15T04:54:30;94816.09;;;14.76;66.93
21182;BME280;10749;46.296;7.524;2022-10-15T04:56:55;94810.16;;;14.74;67.30
21182;BME280;10749;46.296;7.524;2022-10-15T04:59:20;94819.78;;;14.75;67.19
21182;BME280;10749;46.296;7.524;2022-10-15T05:01:46;94816.94;;;14.77;67.19
21182;BME280;10749;46.296;7.524;2022-10-15T05:04:11;94810.78;;;14.76;67.22
21182;BME280;10749;46.296;7.524;2022-10-15T05:06:36;94814.44;;;14.75;67.27
21182;BME280;10749;46.296;7.524;2022-10-15T05:09:02;94812.19;;;14.79;67.14
21182;BME280;10749;46.296;7.524;2022-10-15T05:11:27;94816.91;;;14.84;67.14
21182;BME280;10749;46.296;7.524;2022-10-15T05:13:54;94812.59;;;14.83;67.15
21182;BME280;10749;46.296;7.524;2022-10-15T05:16:25;94815.47;;;14.74;67.21
21182;BME280;10749;46.296;7.524;2022-10-15T05:18:55;94816.91;;;14.70;67.38
21182;BME280;10749;46.296;7.524;2022-10-15T05:21:20;94813.66;;;14.68;67.24
21182;BME280;10749;46.296;7.524;2022-10-15T05:23:46;94830.44;;;14.69;67.36
21182;BME280;10749;46.296;7.524;2022-10-15T05:26:14;94834.97;;;14.68;67.12
21182;BME280;10749;46.296;7.524;2022-10-15T05:28:40;94839.25;;;14.69;67.21
21182;BME280;10749;46.296;7.524;2022-10-15T05:31:08;94836.59;;;14.69;67.52
21182;BME280;10749;46.296;7.524;2022-10-15T05:33:34;94839.47;;;14.68;67.54
21182;BME280;10749;46.296;7.524;2022-10-15T05:36:12;94848.88;;;14.64;67.66
21182;BME280;10749;46.296;7.524;2022-10-15T05:38:39;94850.13;;;14.61;67.63
21182;BME280;10749;46.296;7.524;2022-10-15T05:41:05;94847.66;;;14.60;67.47
21182;BME280;10749;46.296;7.524;2022-10-15T05:43:30;94849.50;;;14.59;67.85
21182;BME280;10749;46.296;7.524;2022-10-15T05:45:56;94855.22;;;14.63;68.11
21182;BME280;10749;46.296;7.524;2022-10-15T05:48:22;94850.13;;;14.68;67.63
21182;BME280;10749;46.296;7.524;2022-10-15T05:50:47;94851.94;;;14.67;67.77
21182;BME280;10749;46.296;7.524;2022-10-15T05:53:12;94857.91;;;14.69;67.59
21182;BME280;10749;46.296;7.524;2022-10-15T05:55:38;94855.03;;;14.71;67.57
21182;BME280;10749;46.296;7.524;2022-10-15T05:58:03;94851.34;;;14.72;67.93
21182;BME280;10749;46.296;7.524;2022-10-15T06:00:30;94852.97;;;14.79;67.79
21182;BME280;10749;46.296;7.524;2022-10-15T06:02:55;94855.84;;;14.85;68.04
21182;BME280;10749;46.296;7.524;2022-10-15T06:05:20;94864.44;;;14.87;68.11
21182;BME280;10749;46.296;7.524;2022-10-15T06:07:46;94872.66;;;14.92;67.74
21182;BME280;10749;46.296;7.524;2022-10-15T06:10:11;94872.25;;;14.95;67.84
21182;BME280;10749;46.296;7.524;2022-10-15T06:12:36;94870.63;;;14.94;67.78
21182;BME280;10749;46.296;7.524;2022-10-15T06:15:04;94871.84;;;14.98;67.93
21182;BME280;10749;46.296;7.524;2022-10-15T06:17:29;94869.19;;;14.98;67.87
21182;BME280;10749;46.296;7.524;2022-10-15T06:19:54;94870.81;;;14.99;67.96
21182;BME280;10749;46.296;7.524;2022-10-15T06:22:20;94876.75;;;15.01;67.93
21182;BME280;10749;46.296;7.524;2022-10-15T06:24:45;94879.00;;;15.04;67.98
21182;BME280;10749;46.296;7.524;2022-10-15T06:27:10;94889.47;;;15.05;67.84
21182;BME280;10749;46.296;7.524;2022-10-15T06:29:37;94883.09;;;15.00;67.61
21182;BME280;10749;46.296;7.524;2022-10-15T06:32:02;94877.16;;;15.04;67.46
21182;BME280;10749;46.296;7.524;2022-10-15T06:34:27;94889.88;;;15.09;67.56
21182;BME280;10749;46.296;7.524;2022-10-15T06:36:53;94891.31;;;15.11;67.63
21182;BME280;10749;46.296;7.524;2022-10-15T06:39:18;94889.88;;;15.09;68.04
21182;BME280;10749;46.296;7.524;2022-10-15T06:41:43;94894.19;;;15.10;67.85
21182;BME280;10749;46.296;7.524;2022-10-15T06:44:09;94898.69;;;15.09;67.85
21182;BME280;10749;46.296;7.524;2022-10-15T06:46:35;94899.72;;;15.15;67.88
21182;BME280;10749;46.296;7.524;2022-10-15T06:49:01;94896.44;;;15.19;67.80
21182;BME280;10749;46.296;7.524;2022-10-15T06:51:26;94901.56;;;15.21;67.95
21182;BME280;10749;46.296;7.524;2022-10-15T06:53:51;94909.53;;;15.21;67.81
21182;BME280;10749;46.296;7.524;2022-10-15T06:56:17;94908.53;;;15.22;67.80
21182;BME280;10749;46.296;7.524;2022-10-15T06:58:42;94903.78;;;15.24;67.87
21182;BME280;10749;46.296;7.524;2022-10-15T07:01:07;94906.47;;;15.24;67.67
21182;BME280;10749;46.296;7.524;2022-10-15T07:03:34;94912.41;;;15.26;67.97
21182;BME280;10749;46.296;7.524;2022-10-15T07:06:05;94910.16;;;15.30;67.97
21182;BME280;10749;46.296;7.524;2022-10-15T07:08:31;94920.22;;;15.34;67.86
21182;BME280;10749;46.296;7.524;2022-10-15T07:10:57;94917.34;;;15.36;67.79
21182;BME280;10749;46.296;7.524;2022-10-15T07:13:22;94922.06;;;15.40;67.64
21182;BME280;10749;46.296;7.524;2022-10-15T07:15:48;94915.28;;;15.44;67.70
21182;BME280;10749;46.296;7.524;2022-10-15T07:18:18;94916.91;;;15.45;67.88
21182;BME280;10749;46.296;7.524;2022-10-15T07:20:43;94919.81;;;15.50;67.66
21182;BME280;10749;46.296;7.524;2022-10-15T07:23:08;94910.78;;;15.51;67.70
21182;BME280;10749;46.296;7.524;2022-10-15T07:25:34;94906.66;;;15.55;67.35
21182;BME280;10749;46.296;7.524;2022-10-15T07:27:59;94915.09;;;15.52;67.68
21182;BME280;10749;46.296;7.524;2022-10-15T07:30:25;94908.72;;;15.53;67.63
21182;BME280;10749;46.296;7.524;2022-10-15T07:32:57;94909.53;;;15.41;67.64
21182;BME280;10749;46.296;7.524;2022-10-15T07:35:23;94902.97;;;15.37;67.67
21182;BME280;10749;46.296;7.524;2022-10-15T07:37:48;94906.84;;;15.41;67.83
21182;BME280;10749;46.296;7.524;2022-10-15T07:40:15;94906.06;;;15.40;67.73
21182;BME280;10749;46.296;7.524;2022-10-15T07:42:41;94911.19;;;15.35;67.58
21182;BME280;10749;46.296;7.524;2022-10-15T07:45:06;94905.63;;;15.43;67.99
21182;BME280;10749;46.296;7.524;2022-10-15T07:47:32;94907.09;;;15.52;68.08
21182;BME280;10749;46.296;7.524;2022-10-15T07:49:57;94911.97;;;15.68;67.91
21182;BME280;10749;46.296;7.524;2022-10-15T07:52:22;94910.72;;;15.78;67.76
21182;BME280;10749;46.296;7.524;2022-10-15T07:54:48;94918.50;;;15.86;68.02
21182;BME280;10749;46.296;7.524;2022-10-15T07:57:13;94909.84;;;15.97;67.93
21182;BME280;10749;46.296;7.524;2022-10-15T07:59:38;94913.09;;;16.05;67.73
21182;BME280;10749;46.296;7.524;2022-10-15T08:02:04;94911.41;;;16.11;67.81
21182;BME280;10749;46.296;7.524;2022-10-15T08:04:29;94920.22;;;16.18;67.62
21182;BME280;10749;46.296;7.524;2022-10-15T08:06:54;94912.56;;;16.28;67.38
21182;BME280;10749;46.296;7.524;2022-10-15T08:09:20;94911.94;;;16.33;67.56
21182;BME280;10749;46.296;7.524;2022-10-15T08:11:45;94912.94;;;16.38;67.63
21182;BME280;10749;46.296;7.524;2022-10-15T08:14:11;94910.47;;;16.43;67.62
21182;BME280;10749;46.296;7.524;2022-10-15T08:16:36;94895.63;;;16.47;67.35
21182;BME280;10749;46.296;7.524;2022-10-15T08:19:01;94908.56;;;16.50;67.23
21182;BME280;10749;46.296;7.524;2022-10-15T08:21:27;94902.78;;;16.53;67.31
21182;BME280;10749;46.296;7.524;2022-10-15T08:23:52;94899.66;;;16.56;67.64
21182;BME280;10749;46.296;7.524;2022-10-15T08:26:18;94900.09;;;16.53;67.67
21182;BME280;10749;46.296;7.524;2022-10-15T08:28:43;94897.22;;;16.61;67.33
21182;BME280;10749;46.296;7.524;2022-10-15T08:31:08;94903.75;;;16.66;67.28
21182;BME280;10749;46.296;7.524;2022-10-15T08:33:35;94899.84;;;16.68;67.26
21182;BME280;10749;46.296;7.524;2022-10-15T08:36:01;94900.84;;;16.74;67.20
21182;BME280;10749;46.296;7.524;2022-10-15T08:38:29;94902.47;;;16.75;67.31
21182;BME280;10749;46.296;7.524;2022-10-15T08:40:56;94902.03;;;16.78;67.08
21182;BME280;10749;46.296;7.524;2022-10-15T08:43:29;94903.69;;;16.79;67.40
21182;BME280;10749;46.296;7.524;2022-10-15T08:46:00;94901.84;;;16.79;67.34
21182;BME280;10749;46.296;7.524;2022-10-15T08:48:39;94908.22;;;16.78;67.25
21182;BME280;10749;46.296;7.524;2022-10-15T08:51:19;94906.19;;;16.74;67.09
21182;BME280;10749;46.296;7.524;2022-10-15T08:53:51;94911.75;;;16.72;67.46
21182;BME280;10749;46.296;7.524;2022-10-15T08:56:31;94900.63;;;16.75;67.51
21182;BME280;10749;46.296;7.524;2022-10-15T09:04:31;94922.19;;;16.80;67.32
21182;BME280;10749;46.296;7.524;2022-10-15T09:07:10;94927.09;;;16.83;67.37
21182;BME280;10749;46.296;7.524;2022-10-15T09:09:48;94926.28;;;16.83;67.37
21182;BME280;10749;46.296;7.524;2022-10-15T09:12:35;94928.50;;;16.86;67.28
21182;BME280;10749;46.296;7.524;2022-10-15T09:15:10;94927.91;;;16.84;67.16
21182;BME280;10749;46.296;7.524;2022-10-15T09:17:37;94923.34;;;16.91;67.41
21182;BME280;10749;46.296;7.524;2022-10-15T09:20:05;94931.97;;;16.93;67.05
21182;BME280;10749;46.296;7.524;2022-10-15T09:22:32;94938.72;;;16.95;67.28
21182;BME280;10749;46.296;7.524;2022-10-15T09:25:01;94941.34;;;17.02;66.98
21182;BME280;10749;46.296;7.524;2022-10-15T09:27:37;94931.44;;;17.09;67.00
21182;BME280;10749;46.296;7.524;2022-10-15T09:32:59;94930.41;;;17.10;67.35
21182;BME280;10749;46.296;7.524;2022-10-15T09:35:39;94929.34;;;17.11;66.99
21182;BME280;10749;46.296;7.524;2022-10-15T09:41:04;94927.84;;;17.22;67.04
21182;BME280;10749;46.296;7.524;2022-10-15T09:43:42;94917.31;;;17.27;66.77
21182;BME280;10749;46.296;7.524;2022-10-15T09:46:09;94915.16;;;17.35;66.92
21182;BME280;10749;46.296;7.524;2022-10-15T09:48:40;94914.88;;;17.43;66.81
21182;BME280;10749;46.296;7.524;2022-10-15T09:51:20;94912.38;;;17.48;66.95
21182;BME280;10749;46.296;7.524;2022-10-15T09:53:53;94918.78;;;17.47;66.79
21182;BME280;10749;46.296;7.524;2022-10-15T09:56:26;94908.94;;;17.41;66.95
21182;BME280;10749;46.296;7.524;2022-10-15T09:58:56;94907.75;;;17.37;66.86
21182;BME280;10749;46.296;7.524;2022-10-15T10:01:23;94908.50;;;17.44;66.96
21182;BME280;10749;46.296;7.524;2022-10-15T10:04:17;94910.31;;;17.50;66.77
21182;BME280;10749;46.296;7.524;2022-10-15T10:06:51;94919.72;;;17.60;66.59
21182;BME280;10749;46.296;7.524;2022-10-15T10:09:25;94921.50;;;17.66;66.70
21182;BME280;10749;46.296;7.524;2022-10-15T10:11:58;94918.81;;;17.66;66.52
21182;BME280;10749;46.296;7.524;2022-10-15T10:14:31;94919.44;;;17.68;66.60
21182;BME280;10749;46.296;7.524;2022-10-15T10:17:04;94928.88;;;17.70;66.71
21182;BME280;10749;46.296;7.524;2022-10-15T10:19:29;94913.78;;;17.76;66.82
21182;BME280;10749;46.296;7.524;2022-10-15T10:22:15;94920.34;;;17.80;66.77
21182;BME280;10749;46.296;7.524;2022-10-15T10:24:40;94927.31;;;17.81;66.68
21182;BME280;10749;46.296;7.524;2022-10-15T10:27:28;94927.75;;;17.78;66.55
21182;BME280;10749;46.296;7.524;2022-10-15T10:30:01;94920.47;;;17.85;66.80
21182;BME280;10749;46.296;7.524;2022-10-15T10:32:32;94917.53;;;17.93;66.66
21182;BME280;10749;46.296;7.524;2022-10-15T10:35:02;94922.78;;;17.99;66.68
21182;BME280;10749;46.296;7.524;2022-10-15T10:37:28;94925.38;;;18.06;66.78
21182;BME280;10749;46.296;7.524;2022-10-15T10:40:20;94927.63;;;18.09;66.78
21182;BME280;10749;46.296;7.524;2022-10-15T10:42:46;94934.41;;;18.12;66.77
21182;BME280;10749;46.296;7.524;2022-10-15T10:45:21;94933.34;;;18.13;66.68
21182;BME280;10749;46.296;7.524;2022-10-15T10:47:47;94933.00;;;18.09;66.45
21182;BME280;10749;46.296;7.524;2022-10-15T10:50:33;94932.84;;;18.04;66.34
21182;BME280;10749;46.296;7.524;2022-10-15T10:53:23;94941.75;;;17.98;66.38
21182;BME280;10749;46.296;7.524;2022-10-15T10:55:51;94949.25;;;17.89;66.37
21182;BME280;10749;46.296;7.524;2022-10-15T10:58:19;94950.38;;;17.82;66.41
21182;BME280;10749;46.296;7.524;2022-10-15T11:00:47;94953.31;;;17.74;66.51
21182;BME280;10749;46.296;7.524;2022-10-15T11:03:33;94956.94;;;17.61;66.60
21182;BME280;10749;46.296;7.524;2022-10-15T11:11:36;94962.09;;;17.81;66.68
21182;BME280;10749;46.296;7.524;2022-10-15T11:19:48;94966.91;;;17.97;66.52
21182;BME280;10749;46.296;7.524;2022-10-15T11:32:57;94951.13;;;18.07;66.59
21182;BME280;10749;46.296;7.524;2022-10-15T11:35:36;94956.03;;;18.10;66.36
21182;BME280;10749;46.296;7.524;2022-10-15T11:46:13;94927.03;;;18.07;66.55
21182;BME280;10749;46.296;7.524;2022-10-15T11:51:33;94920.28;;;18.05;66.02
21182;BME280;10749;46.296;7.524;2022-10-15T11:54:45;94913.06;;;18.05;66.19
21182;BME280;10749;46.296;7.524;2022-10-15T11:57:03;94909.63;;;18.16;66.32
21182;BME280;10749;46.296;7.524;2022-10-15T11:59:50;94914.66;;;18.24;66.23
21182;BME280;10749;46.296;7.524;2022-10-15T12:02:34;94907.97;;;18.33;66.61
21182;BME280;10749;46.296;7.524;2022-10-15T12:05:09;94912.41;;;18.39;66.49
21182;BME280;10749;46.296;7.524;2022-10-15T12:07:46;94911.06;;;18.30;66.28
21182;BME280;10749;46.296;7.524;2022-10-15T12:12:48;94912.09;;;18.48;66.18
21182;BME280;10749;46.296;7.524;2022-10-15T12:18:04;94892.94;;;18.92;66.25
21182;BME280;10749;46.296;7.524;2022-10-15T12:20:35;94890.28;;;18.92;66.02
21182;BME280;10749;46.296;7.524;2022-10-15T12:23:01;94883.88;;;19.05;65.88
21182;BME280;10749;46.296;7.524;2022-10-15T12:25:39;94881.03;;;19.53;65.58
21182;BME280;10749;46.296;7.524;2022-10-15T12:30:34;94871.56;;;20.37;65.60
21182;BME280;10749;46.296;7.524;2022-10-15T12:33:22;94863.38;;;20.88;65.30
21182;BME280;10749;46.296;7.524;2022-10-15T12:35:59;94859.34;;;21.36;64.90
21182;BME280;10749;46.296;7.524;2022-10-15T12:38:32;94850.41;;;21.69;64.62
21182;BME280;10749;46.296;7.524;2022-10-15T12:41:10;94854.31;;;21.78;64.53
21182;BME280;10749;46.296;7.524;2022-10-15T12:43:40;94851.16;;;21.64;64.62
21182;BME280;10749;46.296;7.524;2022-10-15T12:46:08;94837.91;;;21.79;64.27
21182;BME280;10749;46.296;7.524;2022-10-15T12:48:41;94835.09;;;21.52;64.12
21182;BME280;10749;46.296;7.524;2022-10-15T12:53:52;94813.44;;;21.64;63.67
21182;BME280;10749;46.296;7.524;2022-10-15T12:56:23;94811.25;;;21.99;63.93
21182;BME280;10749;46.296;7.524;2022-10-15T12:58:50;94810.50;;;22.26;62.74
21182;BME280;10749;46.296;7.524;2022-10-15T13:03:51;94804.31;;;22.52;63.18
21182;BME280;10749;46.296;7.524;2022-10-15T13:08:52;94794.97;;;23.23;62.38
21182;BME280;10749;46.296;7.524;2022-10-15T13:11:24;94794.03;;;23.39;62.21
21182;BME280;10749;46.296;7.524;2022-10-15T13:13:55;94787.38;;;23.52;61.34
21182;BME280;10749;46.296;7.524;2022-10-15T13:16:23;94787.91;;;23.54;61.11
21182;BME280;10749;46.296;7.524;2022-10-15T13:18:52;94787.56;;;23.87;61.85
21182;BME280;10749;46.296;7.524;2022-10-15T13:21:18;94787.66;;;24.13;61.36
21182;BME280;10749;46.296;7.524;2022-10-15T13:23:48;94792.66;;;24.46;60.83
21182;BME280;10749;46.296;7.524;2022-10-15T13:26:21;94777.81;;;24.59;60.24
21182;BME280;10749;46.296;7.524;2022-10-15T13:28:49;94766.19;;;24.63;60.63
21182;BME280;10749;46.296;7.524;2022-10-15T13:31:22;94762.38;;;24.64;59.25
21182;BME280;10749;46.296;7.524;2022-10-15T13:33:51;94762.94;;;24.81;59.93
21182;BME280;10749;46.296;7.524;2022-10-15T13:36:22;94756.50;;;25.03;59.38
21182;BME280;10749;46.296;7.524;2022-10-15T13:39:04;94756.47;;;25.23;58.45
21182;BME280;10749;46.296;7.524;2022-10-15T13:41:33;94749.94;;;25.44;58.69
21182;BME280;10749;46.296;7.524;2022-10-15T13:44:00;94746.13;;;25.70;58.16
21182;BME280;10749;46.296;7.524;2022-10-15T13:46:29;94750.91;;;25.89;56.84
21182;BME280;10749;46.296;7.524;2022-10-15T13:49:08;94741.13;;;26.03;56.92
21182;BME280;10749;46.296;7.524;2022-10-15T13:51:39;94742.09;;;26.32;56.16
21182;BME280;10749;46.296;7.524;2022-10-15T13:54:09;94736.56;;;26.47;55.32
21182;BME280;10749;46.296;7.524;2022-10-15T13:56:35;94737.31;;;26.58;55.59
21182;BME280;10749;46.296;7.524;2022-10-15T13:59:01;94734.69;;;26.87;53.54
21182;BME280;10749;46.296;7.524;2022-10-15T14:01:28;94735.13;;;27.04;54.77
21182;BME280;10749;46.296;7.524;2022-10-15T14:03:56;94728.19;;;27.45;54.22
21182;BME280;10749;46.296;7.524;2022-10-15T14:06:24;94730.38;;;27.72;53.15
21182;BME280;10749;46.296;7.524;2022-10-15T14:08:52;94729.56;;;28.19;53.13
21182;BME280;10749;46.296;7.524;2022-10-15T14:11:18;94726.94;;;28.52;53.49
21182;BME280;10749;46.296;7.524;2022-10-15T14:18:48;94725.84;;;29.22;51.23
21182;BME280;10749;46.296;7.524;2022-10-15T14:21:17;94721.50;;;29.21;51.48
21182;BME280;10749;46.296;7.524;2022-10-15T14:23:44;94726.31;;;29.29;50.92
21182;BME280;10749;46.296;7.524;2022-10-15T14:26:11;94719.25;;;28.77;50.51
21182;BME280;10749;46.296;7.524;2022-10-15T14:28:38;94720.22;;;28.25;50.30
21182;BME280;10749;46.296;7.524;2022-10-15T14:31:05;94726.91;;;28.14;51.04
21182;BME280;10749;46.296;7.524;2022-10-15T14:38:46;94713.63;;;28.50;49.52
21182;BME280;10749;46.296;7.524;2022-10-15T14:41:25;94705.22;;;27.33;49.20
21182;BME280;10749;46.296;7.524;2022-10-15T14:46:39;94700.09;;;25.40;48.38